sensor_id;sensor_type;location;lat;lon;timestamp;pressure;altitude;pressure_sealevel;temperature;humidity
250;BME280;109;19.806;-70.704;2023-04-07T00:01:33;101638.88;;;22.54;64.56
250;BME280;109;19.806;-70.704;2023-04-07T00:03:59;101653.03;;;22.56;64.49
250;BME280;109;19.806;-70.704;2023-04-07T00:06:26;101654.34;;;22.43;64.53
250;BME280;109;19.806;-70.704;2023-04-07T00:08:52;101666.09;;;22.36;64.41
250;BME280;109;19.806;-70.704;2023-04-07T00:11:18;101663.09;;;22.48;64.54
250;BME280;109;19.806;-70.704;2023-04-07T00:13:45;101668.53;;;22.44;63.63
250;BME280;109;19.806;-70.704;2023-04-07T00:16:11;101677.66;;;22.35;63.85
250;BME280;109;19.806;-70.704;2023-04-07T00:18:38;101677.34;;;22.47;63.82
250;BME280;109;19.806;-70.704;2023-04-07T00:21:10;101670.94;;;22.53;64.00
250;BME280;109;19.806;-70.704;2023-04-07T00:23:37;101675.19;;;22.60;63.51
250;BME280;109;19.806;-70.704;2023-04-07T00:26:09;101671.56;;;22.62;63.28
250;BME280;109;19.806;-70.704;2023-04-07T00:28:37;101669.69;;;22.64;63.46
250;BME280;109;19.806;-70.704;2023-04-07T00:31:18;101673.00;;;22.73;63.77
250;BME280;109;19.806;-70.704;2023-04-07T00:33:58;101673.81;;;22.76;63.93
250;BME280;109;19.806;-70.704;2023-04-07T00:36:25;101672.97;;;22.74;63.77
250;BME280;109;19.806;-70.704;2023-04-07T00:38:58;101671.97;;;22.77;63.41
250;BME280;109;19.806;-70.704;2023-04-07T00:41:25;101676.47;;;22.76;63.55
250;BME280;109;19.806;-70.704;2023-04-07T00:43:58;101677.31;;;22.77;63.65
250;BME280;109;19.806;-70.704;2023-04-07T00:46:25;101677.44;;;22.74;63.51
250;BME280;109;19.806;-70.704;2023-04-07T00:48:59;101678.25;;;22.76;63.39
250;BME280;109;19.806;-70.704;2023-04-07T00:51:25;101680.06;;;22.75;63.94
250;BME280;109;19.806;-70.704;2023-04-07T00:53:59;101680.84;;;22.77;63.42
250;BME280;109;19.806;-70.704;2023-04-07T00:56:26;101676.38;;;22.78;63.33
250;BME280;109;19.806;-70.704;2023-04-07T00:59:00;101682.81;;;22.72;63.63
250;BME280;109;19.806;-70.704;2023-04-07T01:01:37;101691.34;;;22.83;63.64
250;BME280;109;19.806;-70.704;2023-04-07T01:04:30;101685.97;;;22.85;63.63
250;BME280;109;19.806;-70.704;2023-04-07T01:07:10;101682.44;;;22.84;63.70
250;BME280;109;19.806;-70.704;2023-04-07T01:09:56;101676.13;;;22.87;63.39
250;BME280;109;19.806;-70.704;2023-04-07T01:13:04;101685.97;;;22.85;63.61
250;BME280;109;19.806;-70.704;2023-04-07T01:15:38;101688.06;;;22.75;63.28
250;BME280;109;19.806;-70.704;2023-04-07T01:18:16;101688.69;;;22.83;63.34
250;BME280;109;19.806;-70.704;2023-04-07T01:21:01;101687.78;;;22.84;63.19
250;BME280;109;19.806;-70.704;2023-04-07T01:26:32;101690.53;;;22.81;62.86
250;BME280;109;19.806;-70.704;2023-04-07T01:31:53;101698.56;;;22.80;62.88
250;BME280;109;19.806;-70.704;2023-04-07T01:34:40;101698.63;;;22.78;62.92
250;BME280;109;19.806;-70.704;2023-04-07T01:37:15;101701.50;;;22.72;62.96
250;BME280;109;19.806;-70.704;2023-04-07T01:39:42;101702.16;;;22.79;63.09
250;BME280;109;19.806;-70.704;2023-04-07T01:42:16;101714.25;;;22.62;63.14
250;BME280;109;19.806;-70.704;2023-04-07T01:44:45;101725.16;;;22.53;62.85
250;BME280;109;19.806;-70.704;2023-04-07T01:47:19;101727.91;;;22.50;62.61
250;BME280;109;19.806;-70.704;2023-04-07T01:49:47;101721.25;;;22.34;62.64
250;BME280;109;19.806;-70.704;2023-04-07T01:52:21;101730.09;;;22.36;62.66
250;BME280;109;19.806;-70.704;2023-04-07T01:54:48;101738.09;;;22.36;62.50
250;BME280;109;19.806;-70.704;2023-04-07T01:57:21;101723.78;;;22.40;62.70
250;BME280;109;19.806;-70.704;2023-04-07T01:59:52;101739.72;;;22.42;62.56
250;BME280;109;19.806;-70.704;2023-04-07T02:02:40;101739.63;;;22.46;62.06
250;BME280;109;19.806;-70.704;2023-04-07T02:05:19;101736.34;;;22.35;61.86
250;BME280;109;19.806;-70.704;2023-04-07T02:08:04;101746.13;;;22.35;61.93
250;BME280;109;19.806;-70.704;2023-04-07T02:10:40;101759.97;;;22.16;61.96
250;BME280;109;19.806;-70.704;2023-04-07T02:13:10;101765.75;;;22.00;61.77
250;BME280;109;19.806;-70.704;2023-04-07T02:15:47;101767.78;;;21.90;62.22
250;BME280;109;19.806;-70.704;2023-04-07T02:18:22;101765.06;;;21.91;62.84
250;BME280;109;19.806;-70.704;2023-04-07T02:20:59;101774.56;;;21.66;62.89
250;BME280;109;19.806;-70.704;2023-04-07T02:23:27;101798.84;;;21.54;63.63
250;BME280;109;19.806;-70.704;2023-04-07T02:26:00;101800.41;;;21.63;64.15
250;BME280;109;19.806;-70.704;2023-04-07T02:28:27;101808.63;;;21.53;64.63
250;BME280;109;19.806;-70.704;2023-04-07T02:30:59;101811.78;;;21.32;64.68
250;BME280;109;19.806;-70.704;2023-04-07T02:33:46;101808.66;;;21.13;65.14
250;BME280;109;19.806;-70.704;2023-04-07T02:36:19;101796.22;;;21.12;65.94
250;BME280;109;19.806;-70.704;2023-04-07T02:38:46;101793.63;;;21.09;65.98
250;BME280;109;19.806;-70.704;2023-04-07T02:41:19;101790.44;;;20.94;66.02
250;BME280;109;19.806;-70.704;2023-04-07T02:43:46;101773.53;;;20.95;65.97
250;BME280;109;19.806;-70.704;2023-04-07T02:46:19;101774.72;;;20.81;65.97
250;BME280;109;19.806;-70.704;2023-04-07T02:48:46;101767.59;;;20.82;65.77
250;BME280;109;19.806;-70.704;2023-04-07T02:51:18;101762.22;;;20.85;66.21
250;BME280;109;19.806;-70.704;2023-04-07T02:53:45;101759.53;;;20.86;65.76
250;BME280;109;19.806;-70.704;2023-04-07T02:56:18;101752.59;;;20.79;65.69
250;BME280;109;19.806;-70.704;2023-04-07T02:58:52;101744.53;;;20.82;65.50
250;BME280;109;19.806;-70.704;2023-04-07T03:01:26;101737.59;;;20.75;65.52
250;BME280;109;19.806;-70.704;2023-04-07T03:03:53;101733.19;;;20.74;64.84
250;BME280;109;19.806;-70.704;2023-04-07T03:06:26;101728.63;;;20.81;64.96
250;BME280;109;19.806;-70.704;2023-04-07T03:09:01;101723.16;;;20.87;65.04
250;BME280;109;19.806;-70.704;2023-04-07T03:11:33;101721.16;;;20.97;65.16
250;BME280;109;19.806;-70.704;2023-04-07T03:14:09;101717.56;;;20.98;64.74
250;BME280;109;19.806;-70.704;2023-04-07T03:16:48;101719.25;;;21.03;64.58
250;BME280;109;19.806;-70.704;2023-04-07T03:19:21;101722.81;;;21.02;64.84
250;BME280;109;19.806;-70.704;2023-04-07T03:21:49;101716.56;;;21.03;64.37
250;BME280;109;19.806;-70.704;2023-04-07T03:24:23;101725.47;;;21.02;64.35
250;BME280;109;19.806;-70.704;2023-04-07T03:26:49;101718.41;;;21.01;64.42
250;BME280;109;19.806;-70.704;2023-04-07T03:29:33;101721.72;;;21.11;64.86
250;BME280;109;19.806;-70.704;2023-04-07T03:32:10;101728.91;;;21.07;63.28
250;BME280;109;19.806;-70.704;2023-04-07T03:34:56;101723.34;;;21.19;63.64
250;BME280;109;19.806;-70.704;2023-04-07T03:37:29;101725.00;;;21.23;64.19
250;BME280;109;19.806;-70.704;2023-04-07T03:39:56;101721.34;;;21.28;64.04
250;BME280;109;19.806;-70.704;2023-04-07T03:42:33;101723.09;;;21.29;63.97
250;BME280;109;19.806;-70.704;2023-04-07T03:45:07;101730.03;;;21.36;63.06
250;BME280;109;19.806;-70.704;2023-04-07T03:47:37;101726.75;;;21.24;62.13
250;BME280;109;19.806;-70.704;2023-04-07T03:50:10;101718.59;;;21.32;62.57
250;BME280;109;19.806;-70.704;2023-04-07T03:52:47;101698.81;;;21.42;62.98
250;BME280;109;19.806;-70.704;2023-04-07T03:55:27;101706.06;;;21.36;62.47
250;BME280;109;19.806;-70.704;2023-04-07T03:58:08;101693.91;;;21.24;62.19
250;BME280;109;19.806;-70.704;2023-04-07T04:00:45;101674.88;;;21.41;62.46
250;BME280;109;19.806;-70.704;2023-04-07T04:03:19;101664.28;;;21.38;63.42
250;BME280;109;19.806;-70.704;2023-04-07T04:06:25;101661.50;;;21.44;62.93
250;BME280;109;19.806;-70.704;2023-04-07T04:09:07;101658.91;;;21.41;62.65
250;BME280;109;19.806;-70.704;2023-04-07T04:11:44;101644.66;;;21.42;62.52
250;BME280;109;19.806;-70.704;2023-04-07T04:14:18;101639.34;;;21.42;62.63
250;BME280;109;19.806;-70.704;2023-04-07T04:16:52;101642.75;;;21.47;63.00
250;BME280;109;19.806;-70.704;2023-04-07T04:19:35;101637.25;;;21.53;62.85
250;BME280;109;19.806;-70.704;2023-04-07T04:22:29;101626.63;;;21.53;64.12
250;BME280;109;19.806;-70.704;2023-04-07T04:25:03;101619.72;;;21.46;64.36
250;BME280;109;19.806;-70.704;2023-04-07T04:27:30;101625.13;;;21.43;64.24
250;BME280;109;19.806;-70.704;2023-04-07T04:30:10;101615.66;;;21.31;64.46
250;BME280;109;19.806;-70.704;2023-04-07T04:32:50;101614.78;;;21.31;65.20
250;BME280;109;19.806;-70.704;2023-04-07T04:35:46;101606.03;;;21.26;65.21
250;BME280;109;19.806;-70.704;2023-04-07T04:38:20;101595.63;;;21.16;65.02
250;BME280;109;19.806;-70.704;2023-04-07T04:40:59;101587.72;;;21.10;64.57
250;BME280;109;19.806;-70.704;2023-04-07T04:43:40;101584.41;;;21.02;63.93
250;BME280;109;19.806;-70.704;2023-04-07T04:46:18;101591.16;;;21.17;65.05
250;BME280;109;19.806;-70.704;2023-04-07T04:48:51;101577.56;;;21.28;64.56
250;BME280;109;19.806;-70.704;2023-04-07T04:51:20;101567.88;;;21.25;64.84
250;BME280;109;19.806;-70.704;2023-04-07T04:53:58;101566.75;;;21.34;64.83
250;BME280;109;19.806;-70.704;2023-04-07T04:56:33;101561.22;;;21.41;64.86
250;BME280;109;19.806;-70.704;2023-04-07T04:58:59;101568.16;;;21.47;64.28
250;BME280;109;19.806;-70.704;2023-04-07T05:01:48;101556.81;;;21.40;64.31
250;BME280;109;19.806;-70.704;2023-04-07T05:04:29;101551.44;;;21.42;64.38
250;BME280;109;19.806;-70.704;2023-04-07T05:07:24;101556.53;;;21.51;63.92
250;BME280;109;19.806;-70.704;2023-04-07T05:09:58;101548.53;;;21.51;64.57
250;BME280;109;19.806;-70.704;2023-04-07T05:12:25;101539.53;;;21.55;64.24
250;BME280;109;19.806;-70.704;2023-04-07T05:15:00;101544.06;;;21.51;64.28
250;BME280;109;19.806;-70.704;2023-04-07T05:17:27;101538.56;;;21.59;63.67
250;BME280;109;19.806;-70.704;2023-04-07T05:20:01;101542.22;;;21.55;63.90
250;BME280;109;19.806;-70.704;2023-04-07T05:22:35;101544.19;;;21.47;63.82
250;BME280;109;19.806;-70.704;2023-04-07T05:25:12;101542.25;;;21.53;63.86
250;BME280;109;19.806;-70.704;2023-04-07T05:27:41;101542.06;;;21.59;63.70
250;BME280;109;19.806;-70.704;2023-04-07T05:30:15;101534.25;;;21.53;63.84
250;BME280;109;19.806;-70.704;2023-04-07T05:32:42;101532.38;;;21.57;63.57
250;BME280;109;19.806;-70.704;2023-04-07T05:35:23;101521.81;;;21.54;63.24
250;BME280;109;19.806;-70.704;2023-04-07T05:38:03;101522.84;;;21.48;63.67
250;BME280;109;19.806;-70.704;2023-04-07T05:40:29;101525.66;;;21.44;63.29
250;BME280;109;19.806;-70.704;2023-04-07T05:43:02;101531.06;;;21.41;63.19
250;BME280;109;19.806;-70.704;2023-04-07T05:45:38;101530.16;;;21.42;62.67
250;BME280;109;19.806;-70.704;2023-04-07T05:48:12;101520.16;;;21.50;62.84
250;BME280;109;19.806;-70.704;2023-04-07T05:50:42;101512.06;;;21.53;62.74
250;BME280;109;19.806;-70.704;2023-04-07T05:53:17;101519.03;;;21.58;62.99
250;BME280;109;19.806;-70.704;2023-04-07T05:55:45;101511.13;;;21.55;62.75
250;BME280;109;19.806;-70.704;2023-04-07T05:58:38;101509.50;;;21.50;63.43
250;BME280;109;19.806;-70.704;2023-04-07T06:01:12;101509.53;;;21.48;62.96
250;BME280;109;19.806;-70.704;2023-04-07T06:03:38;101502.41;;;21.49;62.33
250;BME280;109;19.806;-70.704;2023-04-07T06:06:27;101495.28;;;21.49;62.89
250;BME280;109;19.806;-70.704;2023-04-07T06:09:01;101486.34;;;21.52;62.97
250;BME280;109;19.806;-70.704;2023-04-07T06:11:27;101490.81;;;21.51;62.86
250;BME280;109;19.806;-70.704;2023-04-07T06:14:01;101489.94;;;21.51;63.34
250;BME280;109;19.806;-70.704;2023-04-07T06:16:27;101488.94;;;21.55;63.02
250;BME280;109;19.806;-70.704;2023-04-07T06:19:01;101486.34;;;21.52;63.08
250;BME280;109;19.806;-70.704;2023-04-07T06:21:28;101487.06;;;21.58;63.52
250;BME280;109;19.806;-70.704;2023-04-07T06:24:04;101482.63;;;21.59;63.04
250;BME280;109;19.806;-70.704;2023-04-07T06:26:39;101479.75;;;21.65;63.07
250;BME280;109;19.806;-70.704;2023-04-07T06:29:06;101471.69;;;21.68;62.96
250;BME280;109;19.806;-70.704;2023-04-07T06:31:38;101475.19;;;21.70;62.49
250;BME280;109;19.806;-70.704;2023-04-07T06:34:25;101483.28;;;21.66;62.58
250;BME280;109;19.806;-70.704;2023-04-07T06:36:59;101484.03;;;21.71;63.05
250;BME280;109;19.806;-70.704;2023-04-07T06:39:26;101483.88;;;21.75;63.13
250;BME280;109;19.806;-70.704;2023-04-07T06:41:59;101498.00;;;21.80;62.81
250;BME280;109;19.806;-70.704;2023-04-07T06:44:26;101493.72;;;21.73;62.62
250;BME280;109;19.806;-70.704;2023-04-07T06:47:07;101488.53;;;21.69;62.23
250;BME280;109;19.806;-70.704;2023-04-07T06:49:40;101485.66;;;21.76;62.65
250;BME280;109;19.806;-70.704;2023-04-07T06:52:07;101485.50;;;21.82;63.24
250;BME280;109;19.806;-70.704;2023-04-07T06:54:40;101482.00;;;21.80;62.75
250;BME280;109;19.806;-70.704;2023-04-07T06:57:08;101479.34;;;21.80;62.19
250;BME280;109;19.806;-70.704;2023-04-07T06:59:43;101474.13;;;21.76;62.35
250;BME280;109;19.806;-70.704;2023-04-07T07:02:10;101477.59;;;21.79;62.62
250;BME280;109;19.806;-70.704;2023-04-07T07:04:43;101475.72;;;21.83;62.31
250;BME280;109;19.806;-70.704;2023-04-07T07:07:16;101477.47;;;21.84;62.52
250;BME280;109;19.806;-70.704;2023-04-07T07:09:48;101472.41;;;21.73;62.65
250;BME280;109;19.806;-70.704;2023-04-07T07:12:15;101465.13;;;21.80;62.49
250;BME280;109;19.806;-70.704;2023-04-07T07:14:49;101457.34;;;21.72;62.76
250;BME280;109;19.806;-70.704;2023-04-07T07:17:15;101451.28;;;21.67;62.82
250;BME280;109;19.806;-70.704;2023-04-07T07:19:49;101454.81;;;21.68;62.98
250;BME280;109;19.806;-70.704;2023-04-07T07:22:15;101443.16;;;21.72;63.32
250;BME280;109;19.806;-70.704;2023-04-07T07:24:49;101436.84;;;21.74;62.97
250;BME280;109;19.806;-70.704;2023-04-07T07:27:15;101448.69;;;21.95;63.04
250;BME280;109;19.806;-70.704;2023-04-07T07:29:49;101442.41;;;21.98;62.34
250;BME280;109;19.806;-70.704;2023-04-07T07:32:15;101441.44;;;21.99;62.75
250;BME280;109;19.806;-70.704;2023-04-07T07:34:49;101430.69;;;22.02;62.93
250;BME280;109;19.806;-70.704;2023-04-07T07:37:28;101436.38;;;21.91;63.08
250;BME280;109;19.806;-70.704;2023-04-07T07:39:55;101424.75;;;21.93;63.38
250;BME280;109;19.806;-70.704;2023-04-07T07:42:29;101429.50;;;21.84;63.85
250;BME280;109;19.806;-70.704;2023-04-07T07:44:56;101421.88;;;21.70;64.52
250;BME280;109;19.806;-70.704;2023-04-07T07:47:37;101424.63;;;21.67;64.04
250;BME280;109;19.806;-70.704;2023-04-07T07:50:10;101422.94;;;21.65;64.46
250;BME280;109;19.806;-70.704;2023-04-07T07:52:36;101417.66;;;21.63;64.75
250;BME280;109;19.806;-70.704;2023-04-07T07:55:10;101416.72;;;21.64;64.35
250;BME280;109;19.806;-70.704;2023-04-07T07:57:36;101414.97;;;21.63;64.61
250;BME280;109;19.806;-70.704;2023-04-07T08:00:09;101415.19;;;21.57;64.46
250;BME280;109;19.806;-70.704;2023-04-07T08:02:41;101417.09;;;21.52;64.55
250;BME280;109;19.806;-70.704;2023-04-07T08:05:15;101424.41;;;21.45;64.30
250;BME280;109;19.806;-70.704;2023-04-07T08:07:48;101424.47;;;21.44;64.63
250;BME280;109;19.806;-70.704;2023-04-07T08:10:21;101413.94;;;21.39;64.97
250;BME280;109;19.806;-70.704;2023-04-07T08:12:48;101419.28;;;21.38;65.16
250;BME280;109;19.806;-70.704;2023-04-07T08:15:21;101413.81;;;21.44;64.63
250;BME280;109;19.806;-70.704;2023-04-07T08:17:47;101408.56;;;21.41;65.01
250;BME280;109;19.806;-70.704;2023-04-07T08:20:21;101411.13;;;21.44;64.73
250;BME280;109;19.806;-70.704;2023-04-07T08:22:47;101404.91;;;21.45;65.10
250;BME280;109;19.806;-70.704;2023-04-07T08:25:21;101388.81;;;21.48;64.98
250;BME280;109;19.806;-70.704;2023-04-07T08:27:47;101386.25;;;21.45;65.30
250;BME280;109;19.806;-70.704;2023-04-07T08:30:21;101384.31;;;21.50;65.42
250;BME280;109;19.806;-70.704;2023-04-07T08:32:48;101386.38;;;21.40;65.49
250;BME280;109;19.806;-70.704;2023-04-07T08:35:21;101389.38;;;21.30;65.66
250;BME280;109;19.806;-70.704;2023-04-07T08:38:01;101403.59;;;21.29;65.18
250;BME280;109;19.806;-70.704;2023-04-07T08:40:28;101406.44;;;21.21;65.42
250;BME280;109;19.806;-70.704;2023-04-07T08:43:08;101404.94;;;21.11;65.05
250;BME280;109;19.806;-70.704;2023-04-07T08:45:42;101419.13;;;21.13;65.37
250;BME280;109;19.806;-70.704;2023-04-07T08:48:22;101420.03;;;21.10;65.58
250;BME280;109;19.806;-70.704;2023-04-07T08:50:55;101423.81;;;21.03;65.43
250;BME280;109;19.806;-70.704;2023-04-07T08:53:25;101429.09;;;21.05;65.64
250;BME280;109;19.806;-70.704;2023-04-07T08:56:01;101431.00;;;21.00;65.88
250;BME280;109;19.806;-70.704;2023-04-07T08:58:29;101426.63;;;20.97;65.82
250;BME280;109;19.806;-70.704;2023-04-07T09:01:04;101432.88;;;20.95;65.43
250;BME280;109;19.806;-70.704;2023-04-07T09:03:32;101437.38;;;20.94;65.51
250;BME280;109;19.806;-70.704;2023-04-07T09:06:06;101438.22;;;20.95;65.68
250;BME280;109;19.806;-70.704;2023-04-07T09:09:11;101442.50;;;21.00;65.44
250;BME280;109;19.806;-70.704;2023-04-07T09:11:52;101442.59;;;20.97;65.54
250;BME280;109;19.806;-70.704;2023-04-07T09:14:20;101431.84;;;21.00;65.81
250;BME280;109;19.806;-70.704;2023-04-07T09:16:54;101431.16;;;20.94;65.77
250;BME280;109;19.806;-70.704;2023-04-07T09:19:23;101427.56;;;20.95;65.88
250;BME280;109;19.806;-70.704;2023-04-07T09:21:57;101434.69;;;20.94;65.87
250;BME280;109;19.806;-70.704;2023-04-07T09:24:25;101444.56;;;20.91;65.85
250;BME280;109;19.806;-70.704;2023-04-07T09:27:15;101442.72;;;20.93;65.89
250;BME280;109;19.806;-70.704;2023-04-07T09:29:50;101449.94;;;20.87;65.73
250;BME280;109;19.806;-70.704;2023-04-07T09:32:36;101449.97;;;20.86;66.07
250;BME280;109;19.806;-70.704;2023-04-07T09:35:13;101450.00;;;20.84;65.94
250;BME280;109;19.806;-70.704;2023-04-07T09:37:39;101450.06;;;20.83;65.85
250;BME280;109;19.806;-70.704;2023-04-07T09:40:24;101443.38;;;20.68;66.11
250;BME280;109;19.806;-70.704;2023-04-07T09:43:00;101453.13;;;20.68;66.17
250;BME280;109;19.806;-70.704;2023-04-07T09:45:27;101452.19;;;20.69;65.99
250;BME280;109;19.806;-70.704;2023-04-07T09:48:16;101447.97;;;20.62;66.16
250;BME280;109;19.806;-70.704;2023-04-07T09:51:05;101447.97;;;20.62;65.56
250;BME280;109;19.806;-70.704;2023-04-07T09:53:49;101464.78;;;20.62;66.44
250;BME280;109;19.806;-70.704;2023-04-07T09:56:31;101470.16;;;20.61;66.18
250;BME280;109;19.806;-70.704;2023-04-07T09:59:04;101468.16;;;20.69;65.71
250;BME280;109;19.806;-70.704;2023-04-07T10:01:30;101469.03;;;20.69;65.50
250;BME280;109;19.806;-70.704;2023-04-07T10:04:04;101473.34;;;20.75;65.90
250;BME280;109;19.806;-70.704;2023-04-07T10:06:30;101469.78;;;20.74;65.58
250;BME280;109;19.806;-70.704;2023-04-07T10:09:04;101476.91;;;20.74;65.67
250;BME280;109;19.806;-70.704;2023-04-07T10:11:51;101481.31;;;20.75;65.63
250;BME280;109;19.806;-70.704;2023-04-07T10:14:30;101487.47;;;20.77;65.52
250;BME280;109;19.806;-70.704;2023-04-07T10:17:04;101483.28;;;20.68;65.56
250;BME280;109;19.806;-70.704;2023-04-07T10:19:31;101498.47;;;20.63;65.65
250;BME280;109;19.806;-70.704;2023-04-07T10:22:06;101491.34;;;20.64;65.21
250;BME280;109;19.806;-70.704;2023-04-07T10:27:59;101485.16;;;20.63;65.76
250;BME280;109;19.806;-70.704;2023-04-07T10:30:35;101486.03;;;20.64;65.72
250;BME280;109;19.806;-70.704;2023-04-07T10:33:01;101493.28;;;20.57;65.94
250;BME280;109;19.806;-70.704;2023-04-07T10:38:31;101495.59;;;20.71;65.72
250;BME280;109;19.806;-70.704;2023-04-07T10:41:35;101504.63;;;20.65;65.37
250;BME280;109;19.806;-70.704;2023-04-07T10:44:49;101505.59;;;20.61;65.89
250;BME280;109;19.806;-70.704;2023-04-07T10:47:28;101514.22;;;20.71;66.23
250;BME280;109;19.806;-70.704;2023-04-07T10:50:22;101511.56;;;20.71;66.21
250;BME280;109;19.806;-70.704;2023-04-07T10:53:09;101523.84;;;20.76;66.29
250;BME280;109;19.806;-70.704;2023-04-07T10:55:43;101521.19;;;20.76;65.89
250;BME280;109;19.806;-70.704;2023-04-07T10:58:25;101540.84;;;20.69;66.38
250;BME280;109;19.806;-70.704;2023-04-07T11:03:31;101555.88;;;20.72;65.88
250;BME280;109;19.806;-70.704;2023-04-07T11:06:09;101553.41;;;20.64;66.08
250;BME280;109;19.806;-70.704;2023-04-07T11:08:44;101552.56;;;20.62;66.37
250;BME280;109;19.806;-70.704;2023-04-07T11:11:19;101557.88;;;20.62;66.11
250;BME280;109;19.806;-70.704;2023-04-07T11:13:48;101568.56;;;20.61;66.48
250;BME280;109;19.806;-70.704;2023-04-07T11:16:17;101577.38;;;20.63;66.58
250;BME280;109;19.806;-70.704;2023-04-07T11:18:46;101578.22;;;20.65;66.65
250;BME280;109;19.806;-70.704;2023-04-07T11:21:18;101588.69;;;20.71;66.72
250;BME280;109;19.806;-70.704;2023-04-07T11:23:46;101585.00;;;20.78;66.79
250;BME280;109;19.806;-70.704;2023-04-07T11:26:13;101600.13;;;20.76;66.65
250;BME280;109;19.806;-70.704;2023-04-07T11:28:54;101588.53;;;20.78;66.39
250;BME280;109;19.806;-70.704;2023-04-07T11:31:25;101587.66;;;20.78;66.34
250;BME280;109;19.806;-70.704;2023-04-07T11:33:57;101627.66;;;20.73;66.12
250;BME280;109;19.806;-70.704;2023-04-07T11:36:31;101625.03;;;20.72;66.82
250;BME280;109;19.806;-70.704;2023-04-07T11:38:59;101632.03;;;20.77;68.06
250;BME280;109;19.806;-70.704;2023-04-07T11:41:29;101620.00;;;20.97;67.71
250;BME280;109;19.806;-70.704;2023-04-07T11:44:10;101621.66;;;21.02;67.61
250;BME280;109;19.806;-70.704;2023-04-07T11:46:54;101617.13;;;21.07;67.57
250;BME280;109;19.806;-70.704;2023-04-07T11:49:22;101604.28;;;21.24;67.51
250;BME280;109;19.806;-70.704;2023-04-07T11:52:01;101607.75;;;21.28;67.45
250;BME280;109;19.806;-70.704;2023-04-07T11:54:44;101605.22;;;21.22;67.12
250;BME280;109;19.806;-70.704;2023-04-07T11:57:28;101614.94;;;21.23;67.05
250;BME280;109;19.806;-70.704;2023-04-07T12:00:13;101609.44;;;21.31;67.24
250;BME280;109;19.806;-70.704;2023-04-07T12:02:40;101610.41;;;21.28;67.59
250;BME280;109;19.806;-70.704;2023-04-07T12:05:07;101613.03;;;21.30;67.26
250;BME280;109;19.806;-70.704;2023-04-07T12:07:38;101613.69;;;21.38;67.30
250;BME280;109;19.806;-70.704;2023-04-07T12:10:23;101613.34;;;21.51;67.50
250;BME280;109;19.806;-70.704;2023-04-07T12:12:52;101614.97;;;21.57;67.22
250;BME280;109;19.806;-70.704;2023-04-07T12:15:19;101609.47;;;21.63;66.85
250;BME280;109;19.806;-70.704;2023-04-07T12:17:47;101601.38;;;21.66;67.11
250;BME280;109;19.806;-70.704;2023-04-07T12:20:14;101598.41;;;21.78;66.46
250;BME280;109;19.806;-70.704;2023-04-07T12:22:41;101594.22;;;22.01;66.54
250;BME280;109;19.806;-70.704;2023-04-07T12:25:07;101590.91;;;22.23;66.24
250;BME280;109;19.806;-70.704;2023-04-07T12:27:34;101579.69;;;22.42;65.53
250;BME280;109;19.806;-70.704;2023-04-07T12:30:00;101579.25;;;22.55;65.32
250;BME280;109;19.806;-70.704;2023-04-07T12:32:27;101570.50;;;22.78;64.70
250;BME280;109;19.806;-70.704;2023-04-07T12:34:54;101573.88;;;22.85;63.54
250;BME280;109;19.806;-70.704;2023-04-07T12:37:20;101576.81;;;23.04;63.46
250;BME280;109;19.806;-70.704;2023-04-07T12:39:47;101574.50;;;23.19;62.30
250;BME280;109;19.806;-70.704;2023-04-07T12:42:14;101583.69;;;23.37;61.82
250;BME280;109;19.806;-70.704;2023-04-07T12:44:40;101585.25;;;23.43;60.80
250;BME280;109;19.806;-70.704;2023-04-07T12:47:06;101588.38;;;23.80;60.86
250;BME280;109;19.806;-70.704;2023-04-07T12:49:33;101597.78;;;24.15;60.53
250;BME280;109;19.806;-70.704;2023-04-07T12:51:59;101592.75;;;24.31;60.27
250;BME280;109;19.806;-70.704;2023-04-07T12:54:26;101593.75;;;24.50;59.95
250;BME280;109;19.806;-70.704;2023-04-07T12:56:53;101588.69;;;24.66;59.38
250;BME280;109;19.806;-70.704;2023-04-07T12:59:21;101584.91;;;24.93;58.71
250;BME280;109;19.806;-70.704;2023-04-07T13:01:49;101582.66;;;25.04;57.77
250;BME280;109;19.806;-70.704;2023-04-07T13:04:16;101591.44;;;25.08;57.31
250;BME280;109;19.806;-70.704;2023-04-07T13:06:42;101585.13;;;25.31;57.43
250;BME280;109;19.806;-70.704;2023-04-07T13:09:09;101582.88;;;25.20;55.89
250;BME280;109;19.806;-70.704;2023-04-07T13:11:35;101575.13;;;25.55;57.07
250;BME280;109;19.806;-70.704;2023-04-07T13:14:02;101576.38;;;25.66;56.31
250;BME280;109;19.806;-70.704;2023-04-07T13:16:28;101578.44;;;25.80;56.55
250;BME280;109;19.806;-70.704;2023-04-07T13:18:55;101579.66;;;25.93;56.17
250;BME280;109;19.806;-70.704;2023-04-07T13:21:22;101589.81;;;25.87;55.70
250;BME280;109;19.806;-70.704;2023-04-07T13:23:48;101590.06;;;26.01;55.60
250;BME280;109;19.806;-70.704;2023-04-07T13:26:16;101580.03;;;26.04;55.32
250;BME280;109;19.806;-70.704;2023-04-07T13:28:42;101574.47;;;26.09;54.75
250;BME280;109;19.806;-70.704;2023-04-07T13:31:11;101575.25;;;25.92;54.38
250;BME280;109;19.806;-70.704;2023-04-07T13:33:40;101580.47;;;25.95;54.82
250;BME280;109;19.806;-70.704;2023-04-07T13:36:07;101576.53;;;26.02;54.79
250;BME280;109;19.806;-70.704;2023-04-07T13:38:33;101574.47;;;26.09;55.01
250;BME280;109;19.806;-70.704;2023-04-07T13:41:02;101581.50;;;26.11;54.54
250;BME280;109;19.806;-70.704;2023-04-07T13:43:28;101574.09;;;25.98;54.96
250;BME280;109;19.806;-70.704;2023-04-07T13:45:55;101583.81;;;26.00;54.32
250;BME280;109;19.806;-70.704;2023-04-07T13:48:21;101582.72;;;26.04;54.83
250;BME280;109;19.806;-70.704;2023-04-07T13:50:48;101586.56;;;26.17;54.96
250;BME280;109;19.806;-70.704;2023-04-07T13:53:14;101593.56;;;26.40;54.68
250;BME280;109;19.806;-70.704;2023-04-07T13:55:41;101605.88;;;26.26;54.22
250;BME280;109;19.806;-70.704;2023-04-07T13:58:07;101615.56;;;26.28;53.66